sensor_id;sensor_type;location;lat;lon;timestamp;temperature;humidity
10175;DHT22;18221;38.704;0.152;2022-12-18T00:00:28;12.20;99.90
10175;DHT22;18221;38.704;0.152;2022-12-18T00:12:03;12.20;99.90
10175;DHT22;18221;38.704;0.152;2022-12-18T00:14:32;12.20;99.90
10175;DHT22;18221;38.704;0.152;2022-12-18T00:17:00;12.20;99.90
10175;DHT22;18221;38.704;0.152;2022-12-18T00:19:29;12.20;99.90
10175;DHT22;18221;38.704;0.152;2022-12-18T00:21:57;12.20;99.90
10175;DHT22;18221;38.704;0.152;2022-12-18T00:24:26;12.20;99.90
10175;DHT22;18221;38.704;0.152;2022-12-18T00:26:54;12.20;99.90
10175;DHT22;18221;38.704;0.152;2022-12-18T00:29:24;12.20;99.90
10175;DHT22;18221;38.704;0.152;2022-12-18T00:31:52;12.30;99.90
10175;DHT22;18221;38.704;0.152;2022-12-18T00:34:20;12.30;99.90
10175;DHT22;18221;38.704;0.152;2022-12-18T00:36:48;12.30;99.90
10175;DHT22;18221;38.704;0.152;2022-12-18T00:39:17;12.40;99.90
10175;DHT22;18221;38.704;0.152;2022-12-18T00:41:45;12.30;99.90
10175;DHT22;18221;38.704;0.152;2022-12-18T00:44:31;12.30;99.90
10175;DHT22;18221;38.704;0.152;2022-12-18T00:47:00;12.30;99.90
10175;DHT22;18221;38.704;0.152;2022-12-18T00:49:28;12.20;99.90
10175;DHT22;18221;38.704;0.152;2022-12-18T00:51:56;12.30;99.90
10175;DHT22;18221;38.704;0.152;2022-12-18T00:54:24;12.30;99.90
10175;DHT22;18221;38.704;0.152;2022-12-18T00:56:53;12.30;99.90
10175;DHT22;18221;38.704;0.152;2022-12-18T00:59:21;12.30;99.90
10175;DHT22;18221;38.704;0.152;2022-12-18T01:01:51;12.30;99.90
10175;DHT22;18221;38.704;0.152;2022-12-18T01:04:19;12.30;99.90
10175;DHT22;18221;38.704;0.152;2022-12-18T01:06:47;12.30;99.90
10175;DHT22;18221;38.704;0.152;2022-12-18T01:09:16;12.40;99.90
10175;DHT22;18221;38.704;0.152;2022-12-18T01:11:45;12.30;99.90
10175;DHT22;18221;38.704;0.152;2022-12-18T01:14:14;12.30;99.90
10175;DHT22;18221;38.704;0.152;2022-12-18T01:16:42;12.30;99.90
10175;DHT22;18221;38.704;0.152;2022-12-18T01:19:12;12.30;99.90
10175;DHT22;18221;38.704;0.152;2022-12-18T01:21:40;12.40;99.90
10175;DHT22;18221;38.704;0.152;2022-12-18T01:24:12;12.30;99.90
10175;DHT22;18221;38.704;0.152;2022-12-18T01:26:40;12.30;99.90
10175;DHT22;18221;38.704;0.152;2022-12-18T01:29:08;12.30;99.90
10175;DHT22;18221;38.704;0.152;2022-12-18T01:31:37;12.40;99.90
10175;DHT22;18221;38.704;0.152;2022-12-18T01:34:05;12.40;99.90
10175;DHT22;18221;38.704;0.152;2022-12-18T01:36:37;12.40;99.90
10175;DHT22;18221;38.704;0.152;2022-12-18T01:39:09;12.40;99.90
10175;DHT22;18221;38.704;0.152;2022-12-18T01:41:39;12.40;99.90
10175;DHT22;18221;38.704;0.152;2022-12-18T01:44:51;12.40;99.90
10175;DHT22;18221;38.704;0.152;2022-12-18T01:47:26;12.40;99.90
10175;DHT22;18221;38.704;0.152;2022-12-18T01:50:00;12.40;99.90
10175;DHT22;18221;38.704;0.152;2022-12-18T01:52:34;12.40;99.90
10175;DHT22;18221;38.704;0.152;2022-12-18T01:55:05;12.40;99.90
10175;DHT22;18221;38.704;0.152;2022-12-18T01:57:35;12.40;99.90
10175;DHT22;18221;38.704;0.152;2022-12-18T02:00:07;12.40;99.90
10175;DHT22;18221;38.704;0.152;2022-12-18T02:02:37;12.40;99.90
10175;DHT22;18221;38.704;0.152;2022-12-18T02:05:07;12.40;99.90
10175;DHT22;18221;38.704;0.152;2022-12-18T02:07:44;12.40;99.90
10175;DHT22;18221;38.704;0.152;2022-12-18T02:10:26;12.40;99.90
10175;DHT22;18221;38.704;0.152;2022-12-18T02:13:04;12.40;99.90
10175;DHT22;18221;38.704;0.152;2022-12-18T02:15:46;12.30;99.90
10175;DHT22;18221;38.704;0.152;2022-12-18T02:18:23;12.30;99.90
10175;DHT22;18221;38.704;0.152;2022-12-18T02:21:01;12.20;99.90
10175;DHT22;18221;38.704;0.152;2022-12-18T02:23:50;12.20;99.90
10175;DHT22;18221;38.704;0.152;2022-12-18T02:26:31;12.20;99.90
10175;DHT22;18221;38.704;0.152;2022-12-18T02:29:05;12.20;99.90
10175;DHT22;18221;38.704;0.152;2022-12-18T02:31:42;12.20;99.90
10175;DHT22;18221;38.704;0.152;2022-12-18T02:34:14;12.20;99.90
10175;DHT22;18221;38.704;0.152;2022-12-18T02:36:45;12.20;99.90
10175;DHT22;18221;38.704;0.152;2022-12-18T02:39:16;12.20;99.90
10175;DHT22;18221;38.704;0.152;2022-12-18T02:41:50;12.20;99.90
10175;DHT22;18221;38.704;0.152;2022-12-18T02:44:19;12.20;99.90
10175;DHT22;18221;38.704;0.152;2022-12-18T02:46:50;12.20;99.90
10175;DHT22;18221;38.704;0.152;2022-12-18T02:49:29;12.30;99.90
10175;DHT22;18221;38.704;0.152;2022-12-18T02:52:09;12.30;99.90
10175;DHT22;18221;38.704;0.152;2022-12-18T02:54:53;12.30;99.90
10175;DHT22;18221;38.704;0.152;2022-12-18T02:57:34;12.30;99.90
10175;DHT22;18221;38.704;0.152;2022-12-18T03:00:12;12.20;99.90
10175;DHT22;18221;38.704;0.152;2022-12-18T03:02:47;12.30;99.90
10175;DHT22;18221;38.704;0.152;2022-12-18T03:05:33;12.20;99.90
10175;DHT22;18221;38.704;0.152;2022-12-18T03:08:07;12.20;99.90
10175;DHT22;18221;38.704;0.152;2022-12-18T03:10:44;12.20;99.90
10175;DHT22;18221;38.704;0.152;2022-12-18T03:13:25;12.20;99.90
10175;DHT22;18221;38.704;0.152;2022-12-18T03:15:59;12.20;99.90
10175;DHT22;18221;38.704;0.152;2022-12-18T03:18:34;12.10;99.90
10175;DHT22;18221;38.704;0.152;2022-12-18T03:21:07;12.10;99.90
10175;DHT22;18221;38.704;0.152;2022-12-18T03:23:42;12.10;99.90
10175;DHT22;18221;38.704;0.152;2022-12-18T03:26:16;12.00;99.90
10175;DHT22;18221;38.704;0.152;2022-12-18T03:28:51;12.00;99.90
10175;DHT22;18221;38.704;0.152;2022-12-18T03:31:23;12.00;99.90
10175;DHT22;18221;38.704;0.152;2022-12-18T03:33:54;12.00;99.90
10175;DHT22;18221;38.704;0.152;2022-12-18T03:36:24;11.90;99.90
10175;DHT22;18221;38.704;0.152;2022-12-18T03:38:52;11.90;99.90
10175;DHT22;18221;38.704;0.152;2022-12-18T03:41:28;11.80;99.90
10175;DHT22;18221;38.704;0.152;2022-12-18T03:44:08;11.70;99.90
10175;DHT22;18221;38.704;0.152;2022-12-18T03:46:46;11.70;99.90
10175;DHT22;18221;38.704;0.152;2022-12-18T03:49:25;11.70;99.90
10175;DHT22;18221;38.704;0.152;2022-12-18T03:52:04;11.70;99.90
10175;DHT22;18221;38.704;0.152;2022-12-18T03:54:37;11.70;99.90
10175;DHT22;18221;38.704;0.152;2022-12-18T03:57:13;11.70;99.90
10175;DHT22;18221;38.704;0.152;2022-12-18T03:59:50;11.70;99.90
10175;DHT22;18221;38.704;0.152;2022-12-18T04:02:23;11.70;99.90
10175;DHT22;18221;38.704;0.152;2022-12-18T04:04:53;11.70;99.90
10175;DHT22;18221;38.704;0.152;2022-12-18T04:07:26;11.60;99.90
10175;DHT22;18221;38.704;0.152;2022-12-18T04:09:57;11.60;99.90
10175;DHT22;18221;38.704;0.152;2022-12-18T04:12:29;11.60;99.90
10175;DHT22;18221;38.704;0.152;2022-12-18T04:14:59;11.60;99.90
10175;DHT22;18221;38.704;0.152;2022-12-18T04:17:27;11.60;99.90
10175;DHT22;18221;38.704;0.152;2022-12-18T04:19:56;11.60;99.90
10175;DHT22;18221;38.704;0.152;2022-12-18T04:22:24;11.60;99.90
10175;DHT22;18221;38.704;0.152;2022-12-18T04:24:52;11.60;99.90
10175;DHT22;18221;38.704;0.152;2022-12-18T04:27:20;11.60;99.90
10175;DHT22;18221;38.704;0.152;2022-12-18T04:29:48;11.60;99.90
10175;DHT22;18221;38.704;0.152;2022-12-18T04:32:18;11.60;99.90
10175;DHT22;18221;38.704;0.152;2022-12-18T04:34:46;11.60;99.90
10175;DHT22;18221;38.704;0.152;2022-12-18T04:37:14;11.60;99.90
10175;DHT22;18221;38.704;0.152;2022-12-18T04:39:43;11.50;99.90
10175;DHT22;18221;38.704;0.152;2022-12-18T04:42:11;11.50;99.90
10175;DHT22;18221;38.704;0.152;2022-12-18T04:44:39;11.60;99.90
10175;DHT22;18221;38.704;0.152;2022-12-18T04:47:07;11.50;99.90
10175;DHT22;18221;38.704;0.152;2022-12-18T04:49:37;11.60;99.90
10175;DHT22;18221;38.704;0.152;2022-12-18T04:52:05;11.60;99.90
10175;DHT22;18221;38.704;0.152;2022-12-18T04:54:34;11.50;99.90
10175;DHT22;18221;38.704;0.152;2022-12-18T04:57:02;11.60;99.90
10175;DHT22;18221;38.704;0.152;2022-12-18T04:59:30;11.50;99.90
10175;DHT22;18221;38.704;0.152;2022-12-18T05:01:58;11.50;99.90
10175;DHT22;18221;38.704;0.152;2022-12-18T05:04:26;11.50;99.90
10175;DHT22;18221;38.704;0.152;2022-12-18T05:06:56;11.40;99.90
10175;DHT22;18221;38.704;0.152;2022-12-18T05:09:24;11.50;99.90
10175;DHT22;18221;38.704;0.152;2022-12-18T05:11:53;11.40;99.90
10175;DHT22;18221;38.704;0.152;2022-12-18T05:14:21;11.40;99.90
10175;DHT22;18221;38.704;0.152;2022-12-18T05:16:49;11.30;99.90
10175;DHT22;18221;38.704;0.152;2022-12-18T05:19:17;11.30;99.90
10175;DHT22;18221;38.704;0.152;2022-12-18T05:21:46;11.30;99.90
10175;DHT22;18221;38.704;0.152;2022-12-18T05:24:16;11.30;99.90
10175;DHT22;18221;38.704;0.152;2022-12-18T05:26:44;11.30;99.90
10175;DHT22;18221;38.704;0.152;2022-12-18T05:29:12;11.30;99.90
10175;DHT22;18221;38.704;0.152;2022-12-18T05:31:41;11.30;99.90
10175;DHT22;18221;38.704;0.152;2022-12-18T05:34:09;11.20;99.90
10175;DHT22;18221;38.704;0.152;2022-12-18T05:36:37;11.30;99.90
10175;DHT22;18221;38.704;0.152;2022-12-18T05:39:06;11.30;99.90
10175;DHT22;18221;38.704;0.152;2022-12-18T05:41:36;11.30;99.90
10175;DHT22;18221;38.704;0.152;2022-12-18T05:44:04;11.30;99.90
10175;DHT22;18221;38.704;0.152;2022-12-18T05:46:32;11.30;99.90
10175;DHT22;18221;38.704;0.152;2022-12-18T05:49:01;11.20;99.90
10175;DHT22;18221;38.704;0.152;2022-12-18T05:51:30;11.20;99.90
10175;DHT22;18221;38.704;0.152;2022-12-18T05:53:58;11.20;99.90
10175;DHT22;18221;38.704;0.152;2022-12-18T05:56:27;11.20;99.90
10175;DHT22;18221;38.704;0.152;2022-12-18T05:58:57;11.30;99.90
10175;DHT22;18221;38.704;0.152;2022-12-18T06:01:26;11.30;99.90
10175;DHT22;18221;38.704;0.152;2022-12-18T06:03:55;11.40;99.90
10175;DHT22;18221;38.704;0.152;2022-12-18T06:06:24;11.40;99.90
10175;DHT22;18221;38.704;0.152;2022-12-18T06:08:55;11.40;99.90
10175;DHT22;18221;38.704;0.152;2022-12-18T06:11:26;11.40;99.90
10175;DHT22;18221;38.704;0.152;2022-12-18T06:13:56;11.40;99.90
10175;DHT22;18221;38.704;0.152;2022-12-18T06:16:25;11.30;99.90
10175;DHT22;18221;38.704;0.152;2022-12-18T06:18:55;11.30;99.90
10175;DHT22;18221;38.704;0.152;2022-12-18T06:21:24;11.30;99.90
10175;DHT22;18221;38.704;0.152;2022-12-18T06:23:52;11.20;99.90
10175;DHT22;18221;38.704;0.152;2022-12-18T06:26:21;11.20;99.90
10175;DHT22;18221;38.704;0.152;2022-12-18T06:28:49;11.20;99.90
10175;DHT22;18221;38.704;0.152;2022-12-18T06:31:19;11.20;99.90
10175;DHT22;18221;38.704;0.152;2022-12-18T06:33:47;11.20;99.90
10175;DHT22;18221;38.704;0.152;2022-12-18T06:36:15;11.20;99.90
10175;DHT22;18221;38.704;0.152;2022-12-18T06:38:44;11.20;99.90
10175;DHT22;18221;38.704;0.152;2022-12-18T06:41:13;11.20;99.90
10175;DHT22;18221;38.704;0.152;2022-12-18T06:43:43;11.20;99.90
10175;DHT22;18221;38.704;0.152;2022-12-18T06:46:12;11.20;99.90
10175;DHT22;18221;38.704;0.152;2022-12-18T06:48:42;11.20;99.90
10175;DHT22;18221;38.704;0.152;2022-12-18T06:51:16;11.30;99.90
10175;DHT22;18221;38.704;0.152;2022-12-18T06:53:45;11.30;99.90
10175;DHT22;18221;38.704;0.152;2022-12-18T06:56:14;11.30;99.90
10175;DHT22;18221;38.704;0.152;2022-12-18T06:58:42;11.30;99.90
10175;DHT22;18221;38.704;0.152;2022-12-18T07:01:11;11.30;99.90
10175;DHT22;18221;38.704;0.152;2022-12-18T07:03:42;11.30;99.90
10175;DHT22;18221;38.704;0.152;2022-12-18T07:06:14;11.20;99.90
10175;DHT22;18221;38.704;0.152;2022-12-18T07:08:44;11.20;99.90
10175;DHT22;18221;38.704;0.152;2022-12-18T07:11:14;11.20;99.90
10175;DHT22;18221;38.704;0.152;2022-12-18T07:13:43;11.20;99.90
10175;DHT22;18221;38.704;0.152;2022-12-18T07:16:14;11.20;99.90
10175;DHT22;18221;38.704;0.152;2022-12-18T07:18:45;11.20;99.90
10175;DHT22;18221;38.704;0.152;2022-12-18T07:21:17;11.20;99.90
10175;DHT22;18221;38.704;0.152;2022-12-18T07:23:48;11.30;99.90
10175;DHT22;18221;38.704;0.152;2022-12-18T07:26:20;11.30;99.90
10175;DHT22;18221;38.704;0.152;2022-12-18T07:28:49;11.20;99.90
10175;DHT22;18221;38.704;0.152;2022-12-18T07:31:20;11.30;99.90
10175;DHT22;18221;38.704;0.152;2022-12-18T07:33:51;11.30;99.90
10175;DHT22;18221;38.704;0.152;2022-12-18T07:36:20;11.30;99.90
10175;DHT22;18221;38.704;0.152;2022-12-18T07:38:48;11.30;99.90
10175;DHT22;18221;38.704;0.152;2022-12-18T07:41:17;11.30;99.90
10175;DHT22;18221;38.704;0.152;2022-12-18T07:43:46;11.30;99.90
10175;DHT22;18221;38.704;0.152;2022-12-18T07:46:15;11.30;99.90
10175;DHT22;18221;38.704;0.152;2022-12-18T07:48:44;11.40;99.90
10175;DHT22;18221;38.704;0.152;2022-12-18T07:51:14;11.40;99.90
10175;DHT22;18221;38.704;0.152;2022-12-18T07:53:43;11.40;99.90
10175;DHT22;18221;38.704;0.152;2022-12-18T07:56:12;11.40;99.90
10175;DHT22;18221;38.704;0.152;2022-12-18T07:58:40;11.50;99.90
10175;DHT22;18221;38.704;0.152;2022-12-18T08:01:11;11.50;99.90
10175;DHT22;18221;38.704;0.152;2022-12-18T08:03:40;11.60;99.90
10175;DHT22;18221;38.704;0.152;2022-12-18T08:06:09;11.60;99.90
10175;DHT22;18221;38.704;0.152;2022-12-18T08:08:39;11.70;99.90
10175;DHT22;18221;38.704;0.152;2022-12-18T08:11:08;11.70;99.90
10175;DHT22;18221;38.704;0.152;2022-12-18T08:13:36;11.70;99.90
10175;DHT22;18221;38.704;0.152;2022-12-18T08:16:06;11.80;99.90
10175;DHT22;18221;38.704;0.152;2022-12-18T08:18:35;11.80;99.90
10175;DHT22;18221;38.704;0.152;2022-12-18T08:21:08;11.80;99.90
10175;DHT22;18221;38.704;0.152;2022-12-18T08:23:39;11.90;99.90
10175;DHT22;18221;38.704;0.152;2022-12-18T08:26:08;11.90;99.90
10175;DHT22;18221;38.704;0.152;2022-12-18T08:28:37;11.90;99.90
10175;DHT22;18221;38.704;0.152;2022-12-18T08:31:05;12.00;99.90
10175;DHT22;18221;38.704;0.152;2022-12-18T08:33:35;12.00;99.90
10175;DHT22;18221;38.704;0.152;2022-12-18T08:36:05;12.00;99.90
10175;DHT22;18221;38.704;0.152;2022-12-18T08:38:35;12.00;99.90
10175;DHT22;18221;38.704;0.152;2022-12-18T08:41:06;12.00;99.90
10175;DHT22;18221;38.704;0.152;2022-12-18T08:43:36;12.10;99.90
10175;DHT22;18221;38.704;0.152;2022-12-18T08:46:24;12.20;99.90
10175;DHT22;18221;38.704;0.152;2022-12-18T08:48:55;12.20;99.90
10175;DHT22;18221;38.704;0.152;2022-12-18T08:51:23;12.30;99.90
10175;DHT22;18221;38.704;0.152;2022-12-18T08:53:53;12.30;99.90
10175;DHT22;18221;38.704;0.152;2022-12-18T08:56:21;12.40;99.90
10175;DHT22;18221;38.704;0.152;2022-12-18T08:58:52;12.40;99.90
10175;DHT22;18221;38.704;0.152;2022-12-18T09:01:21;12.50;99.90
10175;DHT22;18221;38.704;0.152;2022-12-18T09:03:50;12.50;99.90
10175;DHT22;18221;38.704;0.152;2022-12-18T09:06:20;12.50;99.90
10175;DHT22;18221;38.704;0.152;2022-12-18T09:08:51;12.60;99.90
10175;DHT22;18221;38.704;0.152;2022-12-18T09:11:22;12.70;99.90
10175;DHT22;18221;38.704;0.152;2022-12-18T09:13:52;12.80;99.90
10175;DHT22;18221;38.704;0.152;2022-12-18T09:16:22;12.80;99.90
10175;DHT22;18221;38.704;0.152;2022-12-18T09:18:51;12.80;99.90
10175;DHT22;18221;38.704;0.152;2022-12-18T09:21:27;12.80;99.90
10175;DHT22;18221;38.704;0.152;2022-12-18T09:23:58;12.80;99.90
10175;DHT22;18221;38.704;0.152;2022-12-18T09:26:27;12.80;99.90
10175;DHT22;18221;38.704;0.152;2022-12-18T09:28:56;12.90;99.90
10175;DHT22;18221;38.704;0.152;2022-12-18T09:31:25;12.90;99.90
10175;DHT22;18221;38.704;0.152;2022-12-18T09:33:55;13.00;99.90
10175;DHT22;18221;38.704;0.152;2022-12-18T09:36:24;13.10;99.90
10175;DHT22;18221;38.704;0.152;2022-12-18T09:38:53;13.10;99.90
10175;DHT22;18221;38.704;0.152;2022-12-18T09:41:44;13.20;99.90
10175;DHT22;18221;38.704;0.152;2022-12-18T09:44:23;13.20;99.90
10175;DHT22;18221;38.704;0.152;2022-12-18T09:47:05;13.30;99.90
10175;DHT22;18221;38.704;0.152;2022-12-18T09:49:40;13.30;99.90
10175;DHT22;18221;38.704;0.152;2022-12-18T09:52:16;13.40;99.90
10175;DHT22;18221;38.704;0.152;2022-12-18T09:54:53;13.60;99.90
10175;DHT22;18221;38.704;0.152;2022-12-18T09:57:26;13.60;99.90
10175;DHT22;18221;38.704;0.152;2022-12-18T09:59:58;13.60;99.90
10175;DHT22;18221;38.704;0.152;2022-12-18T10:02:31;13.80;99.90
10175;DHT22;18221;38.704;0.152;2022-12-18T10:05:05;13.80;99.90
10175;DHT22;18221;38.704;0.152;2022-12-18T10:07:47;13.80;99.90
10175;DHT22;18221;38.704;0.152;2022-12-18T10:10:34;13.80;99.90
10175;DHT22;18221;38.704;0.152;2022-12-18T10:13:19;13.80;99.90
10175;DHT22;18221;38.704;0.152;2022-12-18T10:16:04;13.80;99.90
10175;DHT22;18221;38.704;0.152;2022-12-18T10:19:05;13.90;99.90
10175;DHT22;18221;38.704;0.152;2022-12-18T10:21:51;14.10;99.90
10175;DHT22;18221;38.704;0.152;2022-12-18T10:24:29;14.20;99.90
10175;DHT22;18221;38.704;0.152;2022-12-18T10:27:12;14.20;99.90
10175;DHT22;18221;38.704;0.152;2022-12-18T10:29:45;14.20;99.90
10175;DHT22;18221;38.704;0.152;2022-12-18T10:32:17;14.40;99.90
10175;DHT22;18221;38.704;0.152;2022-12-18T10:34:47;14.40;99.90
10175;DHT22;18221;38.704;0.152;2022-12-18T10:37:18;14.40;99.90
10175;DHT22;18221;38.704;0.152;2022-12-18T10:40:07;14.50;99.90
10175;DHT22;18221;38.704;0.152;2022-12-18T10:42:38;14.40;99.90
10175;DHT22;18221;38.704;0.152;2022-12-18T10:45:12;14.40;99.90
10175;DHT22;18221;38.704;0.152;2022-12-18T10:47:44;14.40;99.90
10175;DHT22;18221;38.704;0.152;2022-12-18T10:50:22;14.40;99.90
10175;DHT22;18221;38.704;0.152;2022-12-18T10:52:58;14.40;99.90
10175;DHT22;18221;38.704;0.152;2022-12-18T10:55:31;14.50;99.90
10175;DHT22;18221;38.704;0.152;2022-12-18T10:58:19;14.50;99.90
10175;DHT22;18221;38.704;0.152;2022-12-18T11:01:09;14.50;99.90
10175;DHT22;18221;38.704;0.152;2022-12-18T11:03:40;14.60;99.90
10175;DHT22;18221;38.704;0.152;2022-12-18T11:06:12;14.60;99.90
10175;DHT22;18221;38.704;0.152;2022-12-18T11:08:44;14.60;99.90
10175;DHT22;18221;38.704;0.152;2022-12-18T11:11:25;14.60;99.90
10175;DHT22;18221;38.704;0.152;2022-12-18T11:14:03;14.70;99.90
10175;DHT22;18221;38.704;0.152;2022-12-18T11:16:42;14.80;99.90
10175;DHT22;18221;38.704;0.152;2022-12-18T11:19:19;14.80;99.90
10175;DHT22;18221;38.704;0.152;2022-12-18T11:21:52;14.70;99.90
10175;DHT22;18221;38.704;0.152;2022-12-18T11:24:24;14.70;99.90
10175;DHT22;18221;38.704;0.152;2022-12-18T11:26:57;14.70;99.90
10175;DHT22;18221;38.704;0.152;2022-12-18T11:29:33;14.70;99.90
10175;DHT22;18221;38.704;0.152;2022-12-18T11:32:29;14.50;99.90
10175;DHT22;18221;38.704;0.152;2022-12-18T11:35:10;14.70;99.90
10175;DHT22;18221;38.704;0.152;2022-12-18T11:37:45;14.70;99.90
10175;DHT22;18221;38.704;0.152;2022-12-18T11:40:19;14.70;99.90
10175;DHT22;18221;38.704;0.152;2022-12-18T11:42:59;14.70;99.90
10175;DHT22;18221;38.704;0.152;2022-12-18T11:45:35;14.80;99.90
10175;DHT22;18221;38.704;0.152;2022-12-18T11:48:17;14.90;99.90
10175;DHT22;18221;38.704;0.152;2022-12-18T11:50:51;14.90;99.90
10175;DHT22;18221;38.704;0.152;2022-12-18T11:53:21;15.00;99.90
10175;DHT22;18221;38.704;0.152;2022-12-18T11:56:07;15.00;99.90
10175;DHT22;18221;38.704;0.152;2022-12-18T11:58:57;14.90;99.90
10175;DHT22;18221;38.704;0.152;2022-12-18T12:01:44;14.80;99.90
10175;DHT22;18221;38.704;0.152;2022-12-18T12:04:39;14.80;99.90
10175;DHT22;18221;38.704;0.152;2022-12-18T12:07:34;14.80;99.90
10175;DHT22;18221;38.704;0.152;2022-12-18T12:10:21;14.80;99.90
10175;DHT22;18221;38.704;0.152;2022-12-18T12:13:17;14.90;99.90
10175;DHT22;18221;38.704;0.152;2022-12-18T12:16:03;15.00;99.90
10175;DHT22;18221;38.704;0.152;2022-12-18T12:18:54;15.10;99.90
10175;DHT22;18221;38.704;0.152;2022-12-18T12:21:38;15.10;99.90
10175;DHT22;18221;38.704;0.152;2022-12-18T12:24:27;15.20;99.90
10175;DHT22;18221;38.704;0.152;2022-12-18T12:27:10;15.20;99.90
10175;DHT22;18221;38.704;0.152;2022-12-18T12:30:00;15.30;99.90
10175;DHT22;18221;38.704;0.152;2022-12-18T12:32:45;15.50;99.90
10175;DHT22;18221;38.704;0.152;2022-12-18T12:35:32;15.50;99.90
10175;DHT22;18221;38.704;0.152;2022-12-18T12:38:16;15.50;99.90
10175;DHT22;18221;38.704;0.152;2022-12-18T12:40:51;15.50;99.90
10175;DHT22;18221;38.704;0.152;2022-12-18T12:43:32;15.50;99.90
10175;DHT22;18221;38.704;0.152;2022-12-18T12:46:06;15.50;99.90
10175;DHT22;18221;38.704;0.152;2022-12-18T12:48:40;15.50;99.90
10175;DHT22;18221;38.704;0.152;2022-12-18T12:51:15;15.50;99.90
10175;DHT22;18221;38.704;0.152;2022-12-18T12:53:48;15.40;99.90
10175;DHT22;18221;38.704;0.152;2022-12-18T12:56:18;15.50;99.90
10175;DHT22;18221;38.704;0.152;2022-12-18T12:59:01;15.50;99.90
10175;DHT22;18221;38.704;0.152;2022-12-18T13:01:41;15.50;99.90
10175;DHT22;18221;38.704;0.152;2022-12-18T13:04:23;15.60;99.90
10175;DHT22;18221;38.704;0.152;2022-12-18T13:07:03;15.70;99.90
10175;DHT22;18221;38.704;0.152;2022-12-18T13:10:12;15.50;99.90
10175;DHT22;18221;38.704;0.152;2022-12-18T13:12:55;15.60;99.90
10175;DHT22;18221;38.704;0.152;2022-12-18T13:15:30;15.70;99.90
10175;DHT22;18221;38.704;0.152;2022-12-18T13:18:23;15.70;99.90
10175;DHT22;18221;38.704;0.152;2022-12-18T13:21:03;15.80;99.90
10175;DHT22;18221;38.704;0.152;2022-12-18T13:23:40;15.80;99.90
10175;DHT22;18221;38.704;0.152;2022-12-18T13:26:34;15.80;99.90
10175;DHT22;18221;38.704;0.152;2022-12-18T13:29:03;15.90;99.90
10175;DHT22;18221;38.704;0.152;2022-12-18T13:38:21;15.90;99.90
10175;DHT22;18221;38.704;0.152;2022-12-18T13:40:55;15.80;99.90
10175;DHT22;18221;38.704;0.152;2022-12-18T13:43:33;15.80;99.90
10175;DHT22;18221;38.704;0.152;2022-12-18T13:46:20;15.70;99.90
10175;DHT22;18221;38.704;0.152;2022-12-18T13:48:54;15.80;99.90
10175;DHT22;18221;38.704;0.152;2022-12-18T13:51:25;15.80;99.90
10175;DHT22;18221;38.704;0.152;2022-12-18T13:53:57;15.70;99.90
10175;DHT22;18221;38.704;0.152;2022-12-18T13:56:28;15.80;99.90
10175;DHT22;18221;38.704;0.152;2022-12-18T13:59:15;15.80;99.90
10175;DHT22;18221;38.704;0.152;2022-12-18T14:01:47;15.90;99.90
10175;DHT22;18221;38.704;0.152;2022-12-18T14:04:21;15.90;99.90
10175;DHT22;18221;38.704;0.152;2022-12-18T14:06:57;15.80;99.90
10175;DHT22;18221;38.704;0.152;2022-12-18T14:09:34;15.80;99.90
10175;DHT22;18221;38.704;0.152;2022-12-18T14:12:03;15.80;99.90
10175;DHT22;18221;38.704;0.152;2022-12-18T14:14:57;15.80;99.90
10175;DHT22;18221;38.704;0.152;2022-12-18T14:17:27;15.80;99.90
10175;DHT22;18221;38.704;0.152;2022-12-18T14:19:55;15.80;99.90
10175;DHT22;18221;38.704;0.152;2022-12-18T14:22:25;15.80;99.90
10175;DHT22;18221;38.704;0.152;2022-12-18T14:25:16;15.70;99.90
10175;DHT22;18221;38.704;0.152;2022-12-18T14:27:50;15.80;99.90
10175;DHT22;18221;38.704;0.152;2022-12-18T14:30:29;15.80;99.90
10175;DHT22;18221;38.704;0.152;2022-12-18T14:33:03;15.80;99.90
10175;DHT22;18221;38.704;0.152;2022-12-18T14:35:34;15.80;99.90
10175;DHT22;18221;38.704;0.152;2022-12-18T14:38:21;15.80;99.90
10175;DHT22;18221;38.704;0.152;2022-12-18T14:40:56;15.80;99.90
10175;DHT22;18221;38.704;0.152;2022-12-18T14:43:27;15.80;99.90
10175;DHT22;18221;38.704;0.152;2022-12-18T14:45:59;15.70;99.90
10175;DHT22;18221;38.704;0.152;2022-12-18T14:48:37;15.80;99.90
10175;DHT22;18221;38.704;0.152;2022-12-18T14:51:16;15.70;99.90
10175;DHT22;18221;38.704;0.152;2022-12-18T14:53:48;15.70;99.90
10175;DHT22;18221;38.704;0.152;2022-12-18T14:56:22;15.70;99.90
10175;DHT22;18221;38.704;0.152;2022-12-18T14:58:54;15.60;99.90
10175;DHT22;18221;38.704;0.152;2022-12-18T15:01:28;15.60;99.90
10175;DHT22;18221;38.704;0.152;2022-12-18T15:03:59;15.60;99.90
10175;DHT22;18221;38.704;0.152;2022-12-18T15:06:33;15.60;99.90
10175;DHT22;18221;38.704;0.152;2022-12-18T15:09:05;15.60;99.90
10175;DHT22;18221;38.704;0.152;2022-12-18T15:11:54;15.60;99.90
10175;DHT22;18221;38.704;0.152;2022-12-18T15:14:37;15.50;99.90
10175;DHT22;18221;38.704;0.152;2022-12-18T15:17:17;15.50;99.90
10175;DHT22;18221;38.704;0.152;2022-12-18T15:19:48;15.40;99.90
10175;DHT22;18221;38.704;0.152;2022-12-18T15:22:24;15.40;99.90
10175;DHT22;18221;38.704;0.152;2022-12-18T15:24:55;15.40;99.90
10175;DHT22;18221;38.704;0.152;2022-12-18T15:27:28;15.40;99.90
10175;DHT22;18221;38.704;0.152;2022-12-18T15:30:20;15.40;99.90
10175;DHT22;18221;38.704;0.152;2022-12-18T15:33:22;15.40;99.90
10175;DHT22;18221;38.704;0.152;2022-12-18T15:35:57;15.30;99.90
10175;DHT22;18221;38.704;0.152;2022-12-18T15:38:26;15.20;99.90
10175;DHT22;18221;38.704;0.152;2022-12-18T15:40:55;15.20;99.90
10175;DHT22;18221;38.704;0.152;2022-12-18T15:43:25;15.20;99.90
10175;DHT22;18221;38.704;0.152;2022-12-18T15:46:02;15.20;99.90
10175;DHT22;18221;38.704;0.152;2022-12-18T15:48:35;15.10;99.90
10175;DHT22;18221;38.704;0.152;2022-12-18T15:51:11;15.00;99.90
10175;DHT22;18221;38.704;0.152;2022-12-18T15:53:44;15.00;99.90
10175;DHT22;18221;38.704;0.152;2022-12-18T15:56:14;15.00;99.90
10175;DHT22;18221;38.704;0.152;2022-12-18T15:59:00;14.90;99.90
10175;DHT22;18221;38.704;0.152;2022-12-18T16:01:30;14.90;99.90
10175;DHT22;18221;38.704;0.152;2022-12-18T16:04:00;14.80;99.90
10175;DHT22;18221;38.704;0.152;2022-12-18T16:06:28;14.80;99.90
10175;DHT22;18221;38.704;0.152;2022-12-18T16:08:57;14.80;99.90
10175;DHT22;18221;38.704;0.152;2022-12-18T16:11:27;14.70;99.90
10175;DHT22;18221;38.704;0.152;2022-12-18T16:14:16;14.70;99.90
10175;DHT22;18221;38.704;0.152;2022-12-18T16:16:47;14.60;99.90
10175;DHT22;18221;38.704;0.152;2022-12-18T16:19:18;14.60;99.90
10175;DHT22;18221;38.704;0.152;2022-12-18T16:21:48;14.50;99.90
10175;DHT22;18221;38.704;0.152;2022-12-18T16:24:19;14.50;99.90
10175;DHT22;18221;38.704;0.152;2022-12-18T16:26:49;14.50;99.90